sensor_id;sensor_type;location;lat;lon;timestamp;temperature;humidity
47765;DHT22;33529;49.242;8.670;2023-01-19T00:00:32;-2.20;99.90
47765;DHT22;33529;49.242;8.670;2023-01-19T00:02:59;-2.20;99.90
47765;DHT22;33529;49.242;8.670;2023-01-19T00:05:25;-2.20;99.90
47765;DHT22;33529;49.242;8.670;2023-01-19T00:07:52;-2.10;99.90
47765;DHT22;33529;49.242;8.670;2023-01-19T00:10:19;-2.10;99.90
47765;DHT22;33529;49.242;8.670;2023-01-19T00:12:46;-2.10;99.90
47765;DHT22;33529;49.242;8.670;2023-01-19T00:15:12;-2.10;99.90
47765;DHT22;33529;49.242;8.670;2023-01-19T00:17:39;-2.10;99.90
47765;DHT22;33529;49.242;8.670;2023-01-19T00:20:08;-2.10;99.90
47765;DHT22;33529;49.242;8.670;2023-01-19T00:22:35;-2.10;99.90
47765;DHT22;33529;49.242;8.670;2023-01-19T00:25:02;-2.10;99.90
47765;DHT22;33529;49.242;8.670;2023-01-19T00:27:29;-2.10;99.90
47765;DHT22;33529;49.242;8.670;2023-01-19T00:30:00;-2.20;99.90
47765;DHT22;33529;49.242;8.670;2023-01-19T00:32:27;-2.30;99.90
47765;DHT22;33529;49.242;8.670;2023-01-19T00:34:54;-2.30;99.90
47765;DHT22;33529;49.242;8.670;2023-01-19T00:37:21;-2.20;99.90
47765;DHT22;33529;49.242;8.670;2023-01-19T00:39:48;-2.20;99.90
47765;DHT22;33529;49.242;8.670;2023-01-19T00:42:14;-2.20;99.90
47765;DHT22;33529;49.242;8.670;2023-01-19T00:45:00;-2.10;99.90
47765;DHT22;33529;49.242;8.670;2023-01-19T00:47:27;-2.00;99.90
47765;DHT22;33529;49.242;8.670;2023-01-19T00:49:54;-1.90;99.90
47765;DHT22;33529;49.242;8.670;2023-01-19T00:52:21;-1.80;99.90
47765;DHT22;33529;49.242;8.670;2023-01-19T00:54:48;-1.60;99.90
47765;DHT22;33529;49.242;8.670;2023-01-19T00:57:15;-1.60;99.90
47765;DHT22;33529;49.242;8.670;2023-01-19T00:59:42;-1.60;99.90
47765;DHT22;33529;49.242;8.670;2023-01-19T01:02:09;-1.60;99.90
47765;DHT22;33529;49.242;8.670;2023-01-19T01:04:37;-1.60;99.90
47765;DHT22;33529;49.242;8.670;2023-01-19T01:07:03;-1.60;99.90
47765;DHT22;33529;49.242;8.670;2023-01-19T01:09:31;-1.70;99.90
47765;DHT22;33529;49.242;8.670;2023-01-19T01:11:58;-1.70;99.90
47765;DHT22;33529;49.242;8.670;2023-01-19T01:14:25;-1.80;99.90
47765;DHT22;33529;49.242;8.670;2023-01-19T01:16:52;-1.80;99.90
47765;DHT22;33529;49.242;8.670;2023-01-19T01:19:21;-1.80;99.90
47765;DHT22;33529;49.242;8.670;2023-01-19T01:21:48;-1.90;99.90
47765;DHT22;33529;49.242;8.670;2023-01-19T01:24:15;-1.80;99.90
47765;DHT22;33529;49.242;8.670;2023-01-19T01:26:41;-1.90;99.90
47765;DHT22;33529;49.242;8.670;2023-01-19T01:29:08;-1.80;99.90
47765;DHT22;33529;49.242;8.670;2023-01-19T01:31:35;-1.90;99.90
47765;DHT22;33529;49.242;8.670;2023-01-19T01:34:02;-1.80;99.90
47765;DHT22;33529;49.242;8.670;2023-01-19T01:36:29;-1.80;99.90
47765;DHT22;33529;49.242;8.670;2023-01-19T01:38:59;-1.80;99.90
47765;DHT22;33529;49.242;8.670;2023-01-19T01:41:26;-1.70;99.90
47765;DHT22;33529;49.242;8.670;2023-01-19T01:43:54;-1.60;99.90
47765;DHT22;33529;49.242;8.670;2023-01-19T01:46:25;-1.60;99.90
47765;DHT22;33529;49.242;8.670;2023-01-19T01:51:28;-1.60;99.90
47765;DHT22;33529;49.242;8.670;2023-01-19T01:54:18;-1.60;99.90
47765;DHT22;33529;49.242;8.670;2023-01-19T01:56:50;-1.70;99.90
47765;DHT22;33529;49.242;8.670;2023-01-19T01:59:34;-1.60;99.90
47765;DHT22;33529;49.242;8.670;2023-01-19T02:02:09;-1.60;99.90
47765;DHT22;33529;49.242;8.670;2023-01-19T02:04:59;-1.60;99.90
47765;DHT22;33529;49.242;8.670;2023-01-19T02:10:30;-1.60;99.90
47765;DHT22;33529;49.242;8.670;2023-01-19T02:13:17;-1.60;99.90
47765;DHT22;33529;49.242;8.670;2023-01-19T02:15:53;-1.60;99.90
47765;DHT22;33529;49.242;8.670;2023-01-19T02:18:22;-1.70;99.90
47765;DHT22;33529;49.242;8.670;2023-01-19T02:23:56;-1.70;99.90
47765;DHT22;33529;49.242;8.670;2023-01-19T02:26:27;-1.70;99.90
47765;DHT22;33529;49.242;8.670;2023-01-19T02:28:58;-1.60;99.90
47765;DHT22;33529;49.242;8.670;2023-01-19T02:31:26;-1.70;99.90
47765;DHT22;33529;49.242;8.670;2023-01-19T02:33:55;-1.60;99.90
47765;DHT22;33529;49.242;8.670;2023-01-19T02:36:24;-1.60;99.90
47765;DHT22;33529;49.242;8.670;2023-01-19T02:38:55;-1.60;99.90
47765;DHT22;33529;49.242;8.670;2023-01-19T02:41:27;-1.60;99.90
47765;DHT22;33529;49.242;8.670;2023-01-19T02:43:56;-1.60;99.90
47765;DHT22;33529;49.242;8.670;2023-01-19T02:46:24;-1.60;99.90
47765;DHT22;33529;49.242;8.670;2023-01-19T02:48:51;-1.60;99.90
47765;DHT22;33529;49.242;8.670;2023-01-19T02:51:22;-1.60;99.90
47765;DHT22;33529;49.242;8.670;2023-01-19T02:56:56;-1.50;99.90
47765;DHT22;33529;49.242;8.670;2023-01-19T03:08:13;-1.40;99.90
47765;DHT22;33529;49.242;8.670;2023-01-19T03:11:04;-1.40;99.90
47765;DHT22;33529;49.242;8.670;2023-01-19T03:13:43;-1.40;99.90
47765;DHT22;33529;49.242;8.670;2023-01-19T03:19:17;-1.40;99.90
47765;DHT22;33529;49.242;8.670;2023-01-19T03:21:48;-1.40;99.90
47765;DHT22;33529;49.242;8.670;2023-01-19T03:24:17;-1.40;99.90
47765;DHT22;33529;49.242;8.670;2023-01-19T03:26:48;-1.40;99.90
47765;DHT22;33529;49.242;8.670;2023-01-19T03:29:20;-1.40;99.90
47765;DHT22;33529;49.242;8.670;2023-01-19T03:31:50;-1.40;99.90
47765;DHT22;33529;49.242;8.670;2023-01-19T03:34:18;-1.50;99.90
47765;DHT22;33529;49.242;8.670;2023-01-19T03:36:51;-1.50;99.90
47765;DHT22;33529;49.242;8.670;2023-01-19T03:39:23;-1.50;99.90
47765;DHT22;33529;49.242;8.670;2023-01-19T03:41:57;-1.50;99.90
47765;DHT22;33529;49.242;8.670;2023-01-19T03:44:26;-1.50;99.90
47765;DHT22;33529;49.242;8.670;2023-01-19T03:46:54;-1.50;99.90
47765;DHT22;33529;49.242;8.670;2023-01-19T03:49:22;-1.50;99.90
47765;DHT22;33529;49.242;8.670;2023-01-19T03:51:49;-1.50;99.90
47765;DHT22;33529;49.242;8.670;2023-01-19T03:54:16;-1.50;99.90
47765;DHT22;33529;49.242;8.670;2023-01-19T03:56:43;-1.40;99.90
47765;DHT22;33529;49.242;8.670;2023-01-19T03:59:10;-1.30;99.90
47765;DHT22;33529;49.242;8.670;2023-01-19T04:01:36;-1.30;99.90
47765;DHT22;33529;49.242;8.670;2023-01-19T04:04:03;-1.30;99.90
47765;DHT22;33529;49.242;8.670;2023-01-19T04:06:30;-1.10;99.90
47765;DHT22;33529;49.242;8.670;2023-01-19T04:08:57;-1.10;99.90
47765;DHT22;33529;49.242;8.670;2023-01-19T04:11:24;-1.00;99.90
47765;DHT22;33529;49.242;8.670;2023-01-19T04:13:51;-0.90;99.90
47765;DHT22;33529;49.242;8.670;2023-01-19T04:16:17;-0.80;99.90
47765;DHT22;33529;49.242;8.670;2023-01-19T04:18:47;-0.80;99.90
47765;DHT22;33529;49.242;8.670;2023-01-19T04:21:14;-0.80;99.90
47765;DHT22;33529;49.242;8.670;2023-01-19T04:23:41;-0.70;99.90
47765;DHT22;33529;49.242;8.670;2023-01-19T04:26:09;-0.70;99.90
47765;DHT22;33529;49.242;8.670;2023-01-19T04:28:36;-0.60;99.90
47765;DHT22;33529;49.242;8.670;2023-01-19T04:31:04;-0.60;99.90
47765;DHT22;33529;49.242;8.670;2023-01-19T04:33:32;-0.60;99.90
47765;DHT22;33529;49.242;8.670;2023-01-19T04:35:59;-0.70;99.90
47765;DHT22;33529;49.242;8.670;2023-01-19T04:38:26;-0.70;99.90
47765;DHT22;33529;49.242;8.670;2023-01-19T04:40:53;-0.80;99.90
47765;DHT22;33529;49.242;8.670;2023-01-19T04:43:22;-0.70;99.90
47765;DHT22;33529;49.242;8.670;2023-01-19T04:45:49;-0.70;99.90
47765;DHT22;33529;49.242;8.670;2023-01-19T04:48:17;-0.70;99.90
47765;DHT22;33529;49.242;8.670;2023-01-19T04:50:45;-0.70;99.90
47765;DHT22;33529;49.242;8.670;2023-01-19T04:53:12;-0.70;99.90
47765;DHT22;33529;49.242;8.670;2023-01-19T04:55:40;-0.60;99.90
47765;DHT22;33529;49.242;8.670;2023-01-19T04:58:07;-0.60;99.90
47765;DHT22;33529;49.242;8.670;2023-01-19T05:00:34;-0.50;99.90
47765;DHT22;33529;49.242;8.670;2023-01-19T05:03:01;-0.40;99.90
47765;DHT22;33529;49.242;8.670;2023-01-19T05:05:29;-0.30;99.90
47765;DHT22;33529;49.242;8.670;2023-01-19T05:07:56;-0.30;99.90
47765;DHT22;33529;49.242;8.670;2023-01-19T05:10:22;-0.30;99.90
47765;DHT22;33529;49.242;8.670;2023-01-19T05:12:50;-0.20;99.90
47765;DHT22;33529;49.242;8.670;2023-01-19T05:15:16;-0.10;99.90
47765;DHT22;33529;49.242;8.670;2023-01-19T05:17:43;-0.10;99.90
47765;DHT22;33529;49.242;8.670;2023-01-19T05:20:11;-0.10;99.90
47765;DHT22;33529;49.242;8.670;2023-01-19T05:22:42;0.00;99.90
47765;DHT22;33529;49.242;8.670;2023-01-19T05:25:09;0.00;99.90
47765;DHT22;33529;49.242;8.670;2023-01-19T05:27:36;0.00;99.90
47765;DHT22;33529;49.242;8.670;2023-01-19T05:30:04;0.10;99.90
47765;DHT22;33529;49.242;8.670;2023-01-19T05:32:31;0.10;99.90
47765;DHT22;33529;49.242;8.670;2023-01-19T05:34:58;0.10;99.90
47765;DHT22;33529;49.242;8.670;2023-01-19T05:37:25;0.10;99.90
47765;DHT22;33529;49.242;8.670;2023-01-19T05:39:52;0.10;99.90
47765;DHT22;33529;49.242;8.670;2023-01-19T05:42:20;0.10;99.90
47765;DHT22;33529;49.242;8.670;2023-01-19T05:44:47;0.10;99.90
47765;DHT22;33529;49.242;8.670;2023-01-19T05:47:14;0.20;99.90
47765;DHT22;33529;49.242;8.670;2023-01-19T05:49:41;0.10;99.90
47765;DHT22;33529;49.242;8.670;2023-01-19T05:52:07;0.10;99.90
47765;DHT22;33529;49.242;8.670;2023-01-19T05:54:34;0.00;99.90
47765;DHT22;33529;49.242;8.670;2023-01-19T05:57:01;-0.10;99.90
47765;DHT22;33529;49.242;8.670;2023-01-19T05:59:29;-0.10;99.90
47765;DHT22;33529;49.242;8.670;2023-01-19T06:01:55;-0.20;99.90
47765;DHT22;33529;49.242;8.670;2023-01-19T06:04:23;-0.30;99.90
47765;DHT22;33529;49.242;8.670;2023-01-19T06:06:50;-0.40;99.90
47765;DHT22;33529;49.242;8.670;2023-01-19T06:09:18;-0.50;99.90
47765;DHT22;33529;49.242;8.670;2023-01-19T06:11:45;-0.50;99.90
47765;DHT22;33529;49.242;8.670;2023-01-19T06:14:12;-0.60;99.90
47765;DHT22;33529;49.242;8.670;2023-01-19T06:16:39;-0.60;99.90
47765;DHT22;33529;49.242;8.670;2023-01-19T06:19:06;-0.60;99.90
47765;DHT22;33529;49.242;8.670;2023-01-19T06:21:33;-0.50;99.90
47765;DHT22;33529;49.242;8.670;2023-01-19T06:24:00;-0.50;99.90
47765;DHT22;33529;49.242;8.670;2023-01-19T06:26:27;-0.50;99.90
47765;DHT22;33529;49.242;8.670;2023-01-19T06:28:54;-0.40;99.90
47765;DHT22;33529;49.242;8.670;2023-01-19T06:31:21;-0.30;99.90
47765;DHT22;33529;49.242;8.670;2023-01-19T06:33:48;-0.30;99.90
47765;DHT22;33529;49.242;8.670;2023-01-19T06:36:15;-0.30;99.90
47765;DHT22;33529;49.242;8.670;2023-01-19T06:38:42;-0.20;99.90
47765;DHT22;33529;49.242;8.670;2023-01-19T06:41:09;-0.20;99.90
47765;DHT22;33529;49.242;8.670;2023-01-19T06:43:36;-0.20;99.90
47765;DHT22;33529;49.242;8.670;2023-01-19T06:46:02;-0.20;99.90
47765;DHT22;33529;49.242;8.670;2023-01-19T06:48:30;-0.20;99.90
47765;DHT22;33529;49.242;8.670;2023-01-19T06:50:57;-0.20;99.90
47765;DHT22;33529;49.242;8.670;2023-01-19T06:53:25;-0.20;99.90
47765;DHT22;33529;49.242;8.670;2023-01-19T06:55:58;-0.30;99.90
47765;DHT22;33529;49.242;8.670;2023-01-19T06:58:26;-0.20;99.90
47765;DHT22;33529;49.242;8.670;2023-01-19T07:00:53;-0.20;99.90
47765;DHT22;33529;49.242;8.670;2023-01-19T07:03:22;-0.20;99.90
47765;DHT22;33529;49.242;8.670;2023-01-19T07:05:52;-0.10;99.90
47765;DHT22;33529;49.242;8.670;2023-01-19T07:08:19;-0.10;99.90
47765;DHT22;33529;49.242;8.670;2023-01-19T07:10:46;-0.10;99.90
47765;DHT22;33529;49.242;8.670;2023-01-19T07:13:34;-0.10;99.90
47765;DHT22;33529;49.242;8.670;2023-01-19T07:16:05;0.00;99.90
47765;DHT22;33529;49.242;8.670;2023-01-19T07:18:34;0.00;99.90
47765;DHT22;33529;49.242;8.670;2023-01-19T07:21:02;-0.10;99.90
47765;DHT22;33529;49.242;8.670;2023-01-19T07:23:29;-0.10;99.90
47765;DHT22;33529;49.242;8.670;2023-01-19T07:25:57;0.00;99.90
47765;DHT22;33529;49.242;8.670;2023-01-19T07:28:24;0.00;99.90
47765;DHT22;33529;49.242;8.670;2023-01-19T07:30:52;0.10;99.90
47765;DHT22;33529;49.242;8.670;2023-01-19T07:33:19;0.20;99.90
47765;DHT22;33529;49.242;8.670;2023-01-19T07:35:48;0.20;99.90
47765;DHT22;33529;49.242;8.670;2023-01-19T07:38:16;0.20;99.90
47765;DHT22;33529;49.242;8.670;2023-01-19T07:40:44;0.30;99.90
47765;DHT22;33529;49.242;8.670;2023-01-19T07:43:14;0.30;99.90
47765;DHT22;33529;49.242;8.670;2023-01-19T07:45:41;0.30;99.90
47765;DHT22;33529;49.242;8.670;2023-01-19T07:48:09;0.40;99.90
47765;DHT22;33529;49.242;8.670;2023-01-19T07:50:36;0.40;99.90
47765;DHT22;33529;49.242;8.670;2023-01-19T07:53:07;0.50;99.90
47765;DHT22;33529;49.242;8.670;2023-01-19T07:55:35;0.40;99.90
47765;DHT22;33529;49.242;8.670;2023-01-19T07:58:01;0.40;99.90
47765;DHT22;33529;49.242;8.670;2023-01-19T08:00:33;0.40;99.90
47765;DHT22;33529;49.242;8.670;2023-01-19T08:03:01;0.50;99.90
47765;DHT22;33529;49.242;8.670;2023-01-19T08:05:30;0.50;99.90
47765;DHT22;33529;49.242;8.670;2023-01-19T08:07:57;0.60;99.90
47765;DHT22;33529;49.242;8.670;2023-01-19T08:10:26;0.60;99.90
47765;DHT22;33529;49.242;8.670;2023-01-19T08:12:54;0.70;99.90
47765;DHT22;33529;49.242;8.670;2023-01-19T08:15:22;0.60;99.90
47765;DHT22;33529;49.242;8.670;2023-01-19T08:17:58;0.70;99.90
47765;DHT22;33529;49.242;8.670;2023-01-19T08:20:26;0.70;99.90
47765;DHT22;33529;49.242;8.670;2023-01-19T08:22:54;0.70;99.90
47765;DHT22;33529;49.242;8.670;2023-01-19T08:25:34;0.80;99.90
47765;DHT22;33529;49.242;8.670;2023-01-19T08:28:03;0.80;99.90
47765;DHT22;33529;49.242;8.670;2023-01-19T08:30:30;0.90;99.90
47765;DHT22;33529;49.242;8.670;2023-01-19T08:32:57;0.80;99.90
47765;DHT22;33529;49.242;8.670;2023-01-19T08:35:31;0.90;99.90
47765;DHT22;33529;49.242;8.670;2023-01-19T08:37:58;1.00;99.90
47765;DHT22;33529;49.242;8.670;2023-01-19T08:40:28;1.00;99.90
47765;DHT22;33529;49.242;8.670;2023-01-19T08:42:58;1.00;99.90
47765;DHT22;33529;49.242;8.670;2023-01-19T08:45:29;1.00;99.90
47765;DHT22;33529;49.242;8.670;2023-01-19T08:47:59;1.10;99.90
47765;DHT22;33529;49.242;8.670;2023-01-19T08:50:31;1.00;99.90
47765;DHT22;33529;49.242;8.670;2023-01-19T08:52:59;0.90;99.90
47765;DHT22;33529;49.242;8.670;2023-01-19T08:55:28;0.90;99.90
47765;DHT22;33529;49.242;8.670;2023-01-19T08:57:56;0.90;99.90
47765;DHT22;33529;49.242;8.670;2023-01-19T09:00:23;0.90;99.90
47765;DHT22;33529;49.242;8.670;2023-01-19T09:02:50;1.00;99.90
47765;DHT22;33529;49.242;8.670;2023-01-19T09:05:18;0.90;99.90
47765;DHT22;33529;49.242;8.670;2023-01-19T09:07:45;1.00;99.90
47765;DHT22;33529;49.242;8.670;2023-01-19T09:10:14;1.10;99.90
47765;DHT22;33529;49.242;8.670;2023-01-19T09:12:41;1.10;99.90
47765;DHT22;33529;49.242;8.670;2023-01-19T09:15:11;1.10;99.90
47765;DHT22;33529;49.242;8.670;2023-01-19T09:17:40;1.10;99.90
47765;DHT22;33529;49.242;8.670;2023-01-19T09:20:09;1.00;99.90
47765;DHT22;33529;49.242;8.670;2023-01-19T09:22:36;1.00;99.90
47765;DHT22;33529;49.242;8.670;2023-01-19T09:25:06;1.00;99.90
47765;DHT22;33529;49.242;8.670;2023-01-19T09:27:34;1.00;99.90
47765;DHT22;33529;49.242;8.670;2023-01-19T09:30:02;1.00;99.90
47765;DHT22;33529;49.242;8.670;2023-01-19T09:32:29;1.00;99.90
47765;DHT22;33529;49.242;8.670;2023-01-19T09:34:56;1.00;99.90
47765;DHT22;33529;49.242;8.670;2023-01-19T09:37:23;1.00;99.90
47765;DHT22;33529;49.242;8.670;2023-01-19T09:39:49;1.10;99.90
47765;DHT22;33529;49.242;8.670;2023-01-19T09:44:55;1.10;99.90
47765;DHT22;33529;49.242;8.670;2023-01-19T09:47:27;1.20;99.90
47765;DHT22;33529;49.242;8.670;2023-01-19T09:50:02;1.20;99.90
47765;DHT22;33529;49.242;8.670;2023-01-19T09:52:33;1.20;99.90
47765;DHT22;33529;49.242;8.670;2023-01-19T09:55:01;1.10;99.90
47765;DHT22;33529;49.242;8.670;2023-01-19T09:57:34;1.20;99.90
47765;DHT22;33529;49.242;8.670;2023-01-19T10:00:05;1.30;99.90
47765;DHT22;33529;49.242;8.670;2023-01-19T10:02:42;1.30;99.90
47765;DHT22;33529;49.242;8.670;2023-01-19T10:05:29;1.30;99.90
47765;DHT22;33529;49.242;8.670;2023-01-19T10:10:41;1.40;99.90
47765;DHT22;33529;49.242;8.670;2023-01-19T10:18:53;1.40;99.90
47765;DHT22;33529;49.242;8.670;2023-01-19T10:21:30;1.40;99.90
47765;DHT22;33529;49.242;8.670;2023-01-19T10:26:51;1.50;99.90
47765;DHT22;33529;49.242;8.670;2023-01-19T10:29:32;1.40;99.90
47765;DHT22;33529;49.242;8.670;2023-01-19T10:32:10;1.50;99.90
47765;DHT22;33529;49.242;8.670;2023-01-19T10:34:39;1.40;99.90
47765;DHT22;33529;49.242;8.670;2023-01-19T10:39:51;1.40;99.90
47765;DHT22;33529;49.242;8.670;2023-01-19T10:42:19;1.50;99.90
47765;DHT22;33529;49.242;8.670;2023-01-19T10:44:46;1.50;99.90
47765;DHT22;33529;49.242;8.670;2023-01-19T10:47:19;1.60;99.90
47765;DHT22;33529;49.242;8.670;2023-01-19T10:49:47;1.70;99.90
47765;DHT22;33529;49.242;8.670;2023-01-19T10:54:46;1.80;99.90
47765;DHT22;33529;49.242;8.670;2023-01-19T10:57:25;1.80;99.90
47765;DHT22;33529;49.242;8.670;2023-01-19T10:59:53;2.00;99.90
47765;DHT22;33529;49.242;8.670;2023-01-19T11:02:24;2.00;99.90
47765;DHT22;33529;49.242;8.670;2023-01-19T11:04:56;1.90;99.90
47765;DHT22;33529;49.242;8.670;2023-01-19T11:07:31;2.00;99.90
47765;DHT22;33529;49.242;8.670;2023-01-19T11:10:21;2.10;99.90
47765;DHT22;33529;49.242;8.670;2023-01-19T11:15:29;2.30;99.90
47765;DHT22;33529;49.242;8.670;2023-01-19T11:17:56;2.40;99.90
47765;DHT22;33529;49.242;8.670;2023-01-19T11:20:27;2.50;99.90
47765;DHT22;33529;49.242;8.670;2023-01-19T11:23:51;2.40;99.90
47765;DHT22;33529;49.242;8.670;2023-01-19T11:25:57;2.40;99.90
47765;DHT22;33529;49.242;8.670;2023-01-19T11:28:33;2.40;99.90
47765;DHT22;33529;49.242;8.670;2023-01-19T11:33:40;2.40;99.90
47765;DHT22;33529;49.242;8.670;2023-01-19T11:36:21;2.50;99.90
47765;DHT22;33529;49.242;8.670;2023-01-19T11:38:54;2.50;99.90
47765;DHT22;33529;49.242;8.670;2023-01-19T11:41:33;2.60;99.90
47765;DHT22;33529;49.242;8.670;2023-01-19T11:44:22;2.70;99.90
47765;DHT22;33529;49.242;8.670;2023-01-19T11:46:53;2.80;99.90
47765;DHT22;33529;49.242;8.670;2023-01-19T11:52:36;2.80;99.90
47765;DHT22;33529;49.242;8.670;2023-01-19T11:57:49;2.80;99.90
47765;DHT22;33529;49.242;8.670;2023-01-19T12:03:02;2.70;99.90
47765;DHT22;33529;49.242;8.670;2023-01-19T12:05:32;2.60;99.90
47765;DHT22;33529;49.242;8.670;2023-01-19T12:08:02;2.60;99.90
47765;DHT22;33529;49.242;8.670;2023-01-19T12:10:37;2.60;99.90
47765;DHT22;33529;49.242;8.670;2023-01-19T12:13:22;2.60;99.90
47765;DHT22;33529;49.242;8.670;2023-01-19T12:16:00;2.60;99.90
47765;DHT22;33529;49.242;8.670;2023-01-19T12:18:43;2.60;99.90
47765;DHT22;33529;49.242;8.670;2023-01-19T12:21:11;2.60;99.90
47765;DHT22;33529;49.242;8.670;2023-01-19T12:23:55;2.60;99.90
47765;DHT22;33529;49.242;8.670;2023-01-19T12:26:35;2.50;99.90
47765;DHT22;33529;49.242;8.670;2023-01-19T12:31:32;2.50;99.90
47765;DHT22;33529;49.242;8.670;2023-01-19T12:37:05;2.50;99.90
47765;DHT22;33529;49.242;8.670;2023-01-19T12:39:32;2.60;99.90
47765;DHT22;33529;49.242;8.670;2023-01-19T12:42:05;2.70;99.90
47765;DHT22;33529;49.242;8.670;2023-01-19T12:44:33;2.80;99.90
47765;DHT22;33529;49.242;8.670;2023-01-19T12:47:17;2.80;99.90
47765;DHT22;33529;49.242;8.670;2023-01-19T12:49:48;2.80;99.90
47765;DHT22;33529;49.242;8.670;2023-01-19T12:52:35;2.80;99.90
47765;DHT22;33529;49.242;8.670;2023-01-19T12:57:46;2.90;99.90
47765;DHT22;33529;49.242;8.670;2023-01-19T13:05:22;3.30;99.90
47765;DHT22;33529;49.242;8.670;2023-01-19T13:13:22;3.40;99.90
47765;DHT22;33529;49.242;8.670;2023-01-19T13:15:51;3.20;99.90
47765;DHT22;33529;49.242;8.670;2023-01-19T13:18:23;3.10;99.90
47765;DHT22;33529;49.242;8.670;2023-01-19T13:21:03;3.00;99.90
47765;DHT22;33529;49.242;8.670;2023-01-19T13:26:22;3.10;99.90
47765;DHT22;33529;49.242;8.670;2023-01-19T13:28:55;3.10;99.90
47765;DHT22;33529;49.242;8.670;2023-01-19T13:31:23;3.30;99.90
47765;DHT22;33529;49.242;8.670;2023-01-19T13:33:53;3.30;99.90
47765;DHT22;33529;49.242;8.670;2023-01-19T13:36:26;3.50;99.90
47765;DHT22;33529;49.242;8.670;2023-01-19T13:38:56;3.60;99.90
47765;DHT22;33529;49.242;8.670;2023-01-19T13:41:28;3.60;99.90
47765;DHT22;33529;49.242;8.670;2023-01-19T13:44:00;3.70;99.90
47765;DHT22;33529;49.242;8.670;2023-01-19T13:46:28;3.80;99.90
47765;DHT22;33529;49.242;8.670;2023-01-19T13:49:10;3.90;99.90
47765;DHT22;33529;49.242;8.670;2023-01-19T13:51:38;3.80;99.90
47765;DHT22;33529;49.242;8.670;2023-01-19T13:54:14;3.80;99.90
47765;DHT22;33529;49.242;8.670;2023-01-19T13:56:48;3.80;99.90
47765;DHT22;33529;49.242;8.670;2023-01-19T13:59:17;3.90;99.90
47765;DHT22;33529;49.242;8.670;2023-01-19T14:01:45;3.80;99.90
47765;DHT22;33529;49.242;8.670;2023-01-19T14:04:28;3.70;99.90
47765;DHT22;33529;49.242;8.670;2023-01-19T14:07:01;3.70;99.90
47765;DHT22;33529;49.242;8.670;2023-01-19T14:09:29;3.80;99.90
47765;DHT22;33529;49.242;8.670;2023-01-19T14:12:12;3.80;99.90
47765;DHT22;33529;49.242;8.670;2023-01-19T14:14:41;3.80;99.90
47765;DHT22;33529;49.242;8.670;2023-01-19T14:17:35;3.70;99.90
47765;DHT22;33529;49.242;8.670;2023-01-19T14:20:02;3.70;99.90
47765;DHT22;33529;49.242;8.670;2023-01-19T14:22:41;3.70;99.90
47765;DHT22;33529;49.242;8.670;2023-01-19T14:25:34;3.60;99.90
47765;DHT22;33529;49.242;8.670;2023-01-19T14:28:33;3.60;99.90
47765;DHT22;33529;49.242;8.670;2023-01-19T14:31:21;3.60;99.90
47765;DHT22;33529;49.242;8.670;2023-01-19T14:33:52;3.70;99.90
47765;DHT22;33529;49.242;8.670;2023-01-19T14:36:26;3.70;99.90
47765;DHT22;33529;49.242;8.670;2023-01-19T14:38:55;3.70;99.90
47765;DHT22;33529;49.242;8.670;2023-01-19T14:41:36;3.70;99.90
47765;DHT22;33529;49.242;8.670;2023-01-19T14:44:14;3.70;99.90
47765;DHT22;33529;49.242;8.670;2023-01-19T14:46:47;3.70;99.90
47765;DHT22;33529;49.242;8.670;2023-01-19T14:51:53;3.30;99.90
47765;DHT22;33529;49.242;8.670;2023-01-19T14:54:28;3.40;99.90
47765;DHT22;33529;49.242;8.670;2023-01-19T14:56:56;3.30;99.90
47765;DHT22;33529;49.242;8.670;2023-01-19T14:59:23;3.30;99.90
47765;DHT22;33529;49.242;8.670;2023-01-19T15:01:50;3.30;99.90
47765;DHT22;33529;49.242;8.670;2023-01-19T15:04:17;3.30;99.90
47765;DHT22;33529;49.242;8.670;2023-01-19T15:06:44;3.40;99.90
47765;DHT22;33529;49.242;8.670;2023-01-19T15:09:12;3.30;99.90
47765;DHT22;33529;49.242;8.670;2023-01-19T15:11:40;3.30;99.90
47765;DHT22;33529;49.242;8.670;2023-01-19T15:14:12;3.30;99.90
47765;DHT22;33529;49.242;8.670;2023-01-19T15:16:39;3.30;99.90
47765;DHT22;33529;49.242;8.670;2023-01-19T15:19:11;3.30;99.90
47765;DHT22;33529;49.242;8.670;2023-01-19T15:21:38;3.30;99.90
47765;DHT22;33529;49.242;8.670;2023-01-19T15:24:08;3.30;99.90
47765;DHT22;33529;49.242;8.670;2023-01-19T15:26:37;3.30;99.90
47765;DHT22;33529;49.242;8.670;2023-01-19T15:29:25;3.20;99.90
47765;DHT22;33529;49.242;8.670;2023-01-19T15:31:52;3.30;99.90
47765;DHT22;33529;49.242;8.670;2023-01-19T15:34:18;3.30;99.90
47765;DHT22;33529;49.242;8.670;2023-01-19T15:36:45;3.30;99.90
47765;DHT22;33529;49.242;8.670;2023-01-19T15:39:12;3.20;99.90
47765;DHT22;33529;49.242;8.670;2023-01-19T15:41:39;3.10;99.90
47765;DHT22;33529;49.242;8.670;2023-01-19T15:44:07;3.00;99.90
47765;DHT22;33529;49.242;8.670;2023-01-19T15:46:36;3.00;99.90
47765;DHT22;33529;49.242;8.670;2023-01-19T15:49:03;2.90;99.90
47765;DHT22;33529;49.242;8.670;2023-01-19T15:51:33;2.90;99.90
47765;DHT22;33529;49.242;8.670;2023-01-19T15:54:00;2.90;99.90
47765;DHT22;33529;49.242;8.670;2023-01-19T15:56:28;2.80;99.90
47765;DHT22;33529;49.242;8.670;2023-01-19T15:58:56;2.80;99.90
47765;DHT22;33529;49.242;8.670;2023-01-19T16:01:26;2.80;99.90
47765;DHT22;33529;49.242;8.670;2023-01-19T16:03:58;2.80;99.90
47765;DHT22;33529;49.242;8.670;2023-01-19T16:06:27;2.70;99.90
47765;DHT22;33529;49.242;8.670;2023-01-19T16:08:55;2.70;99.90
47765;DHT22;33529;49.242;8.670;2023-01-19T16:11:34;2.70;99.90
47765;DHT22;33529;49.242;8.670;2023-01-19T16:14:03;2.70;99.90
47765;DHT22;33529;49.242;8.670;2023-01-19T16:16:30;2.60;99.90
47765;DHT22;33529;49.242;8.670;2023-01-19T16:18:56;2.70;99.90
47765;DHT22;33529;49.242;8.670;2023-01-19T16:21:23;2.70;99.90
47765;DHT22;33529;49.242;8.670;2023-01-19T16:23:51;2.70;99.90
47765;DHT22;33529;49.242;8.670;2023-01-19T16:26:29;2.70;99.90
47765;DHT22;33529;49.242;8.670;2023-01-19T16:28:59;2.60;99.90
47765;DHT22;33529;49.242;8.670;2023-01-19T16:31:27;2.60;99.90
47765;DHT22;33529;49.242;8.670;2023-01-19T16:33:54;2.60;99.90
47765;DHT22;33529;49.242;8.670;2023-01-19T16:36:30;2.50;99.90
47765;DHT22;33529;49.242;8.670;2023-01-19T16:38:58;2.50;99.90
47765;DHT22;33529;49.242;8.670;2023-01-19T16:41:26;2.50;99.90
47765;DHT22;33529;49.242;8.670;2023-01-19T16:43:54;2.50;99.90
47765;DHT22;33529;49.242;8.670;2023-01-19T16:46:23;2.50;99.90
47765;DHT22;33529;49.242;8.670;2023-01-19T16:48:51;2.50;99.90
47765;DHT22;33529;49.242;8.670;2023-01-19T16:51:18;2.50;99.90
47765;DHT22;33529;49.242;8.670;2023-01-19T16:53:47;2.50;99.90
47765;DHT22;33529;49.242;8.670;2023-01-19T16:56:16;2.50;99.90
47765;DHT22;33529;49.242;8.670;2023-01-19T16:58:43;2.40;99.90
47765;DHT22;33529;49.242;8.670;2023-01-19T17:01:14;2.40;99.90
47765;DHT22;33529;49.242;8.670;2023-01-19T17:03:45;2.40;99.90
47765;DHT22;33529;49.242;8.670;2023-01-19T17:06:14;2.40;99.90
47765;DHT22;33529;49.242;8.670;2023-01-19T17:08:43;2.40;99.90
47765;DHT22;33529;49.242;8.670;2023-01-19T17:11:13;2.30;99.90
47765;DHT22;33529;49.242;8.670;2023-01-19T17:13:45;2.40;99.90
47765;DHT22;33529;49.242;8.670;2023-01-19T17:16:12;2.30;99.90
47765;DHT22;33529;49.242;8.670;2023-01-19T17:18:39;2.30;99.90